Decoded Metar for LFBE (BERGERAC in FRANCE) (IATA:EGC) | Meteo·Mobile Aviation Weather
aviador You're here:

LFBE Decoded Metar

BERGERAC in FRANCE
Report Time2019-07-23 08:30:00
UTC Time2019-07-23 08:55:20
Flight Rules vfr VFR
Wind050° at 04 kt
W.Decomp.*RWY 10: 2.6 kt HW 3.1 kt LCW
Visibility9999 m
Phenomena:N/A
Clouds:N/A
Expected CloudBase > 4,400 ft AGL from Temp-Dew spread
CeilingNone
Temp31°C (ISA +16)
Dew Point20°C (52% RH)
Heat Index33.0°C
QNH1016 hPa
Density Alt2,247 ft
Elevation171 ft
Report Wrong Elevation
Raw Report
LFBE 230830Z AUTO 05004KT 010V080 CAVOK 31/20 Q1016 TEMPO
16010KT=

Extra information for LFBE:More info

Metar Taf Metar & Taf Last 4 Metars F.Rules Stats Wind Profile Meteogram Temp Stats Airport Information Weather charts Add Link Nearby VenuesMetar ALERT Operation Metar Decoded Social comments